sensor_id;sensor_type;location;lat;lon;timestamp;pressure;altitude;pressure_sealevel;temperature;humidity
76128;BME280;64873;50.102;14.434;2023-03-01T00:01:01;100575.03;;;-1.23;66.70
76128;BME280;64873;50.102;14.434;2023-03-01T00:03:26;100572.72;;;-1.15;65.93
76128;BME280;64873;50.102;14.434;2023-03-01T00:05:52;100576.88;;;-1.13;66.00
76128;BME280;64873;50.102;14.434;2023-03-01T00:08:17;100579.94;;;-1.19;66.93
76128;BME280;64873;50.102;14.434;2023-03-01T00:10:43;100578.69;;;-1.13;65.90
76128;BME280;64873;50.102;14.434;2023-03-01T00:13:08;100581.53;;;-1.16;66.46
76128;BME280;64873;50.102;14.434;2023-03-01T00:15:38;100583.31;;;-1.17;66.66
76128;BME280;64873;50.102;14.434;2023-03-01T00:18:03;100584.56;;;-1.10;66.42
76128;BME280;64873;50.102;14.434;2023-03-01T00:20:29;100584.16;;;-1.16;66.17
76128;BME280;64873;50.102;14.434;2023-03-01T00:22:54;100580.94;;;-1.32;66.71
76128;BME280;64873;50.102;14.434;2023-03-01T00:25:20;100585.75;;;-1.26;67.10
76128;BME280;64873;50.102;14.434;2023-03-01T00:27:46;100587.25;;;-1.48;68.18
76128;BME280;64873;50.102;14.434;2023-03-01T00:30:14;100580.34;;;-1.49;68.09
76128;BME280;64873;50.102;14.434;2023-03-01T00:32:40;100578.66;;;-1.50;68.67
76128;BME280;64873;50.102;14.434;2023-03-01T00:35:05;100581.06;;;-1.47;68.66
76128;BME280;64873;50.102;14.434;2023-03-01T00:37:31;100568.69;;;-1.45;68.79
76128;BME280;64873;50.102;14.434;2023-03-01T00:39:56;100562.50;;;-1.44;68.24
76128;BME280;64873;50.102;14.434;2023-03-01T00:42:21;100552.66;;;-1.53;68.26
76128;BME280;64873;50.102;14.434;2023-03-01T00:44:47;100552.22;;;-1.47;67.76
76128;BME280;64873;50.102;14.434;2023-03-01T00:47:13;100557.69;;;-1.50;68.58
76128;BME280;64873;50.102;14.434;2023-03-01T00:49:39;100556.63;;;-1.47;67.40
76128;BME280;64873;50.102;14.434;2023-03-01T00:52:05;100554.75;;;-1.45;68.18
76128;BME280;64873;50.102;14.434;2023-03-01T00:54:30;100553.69;;;-1.43;67.23
76128;BME280;64873;50.102;14.434;2023-03-01T00:56:56;100555.34;;;-1.42;67.70
76128;BME280;64873;50.102;14.434;2023-03-01T00:59:21;100553.94;;;-1.46;67.31
76128;BME280;64873;50.102;14.434;2023-03-01T01:01:47;100552.44;;;-1.50;67.82
76128;BME280;64873;50.102;14.434;2023-03-01T01:04:13;100559.16;;;-1.46;67.13
76128;BME280;64873;50.102;14.434;2023-03-01T01:06:43;100552.06;;;-1.56;67.98
76128;BME280;64873;50.102;14.434;2023-03-01T01:09:12;100544.75;;;-1.64;68.11
76128;BME280;64873;50.102;14.434;2023-03-01T01:11:49;100546.19;;;-1.60;68.05
76128;BME280;64873;50.102;14.434;2023-03-01T01:14:15;100538.75;;;-1.66;68.52
76128;BME280;64873;50.102;14.434;2023-03-01T01:16:41;100535.94;;;-1.63;69.29
76128;BME280;64873;50.102;14.434;2023-03-01T01:19:07;100537.38;;;-1.59;68.54
76128;BME280;64873;50.102;14.434;2023-03-01T01:21:32;100545.38;;;-1.73;68.51
76128;BME280;64873;50.102;14.434;2023-03-01T01:23:58;100537.81;;;-1.78;69.17
76128;BME280;64873;50.102;14.434;2023-03-01T01:26:26;100525.69;;;-1.92;69.57
76128;BME280;64873;50.102;14.434;2023-03-01T01:28:53;100535.84;;;-2.00;70.27
76128;BME280;64873;50.102;14.434;2023-03-01T01:31:18;100536.78;;;-2.01;70.40
76128;BME280;64873;50.102;14.434;2023-03-01T01:33:44;100535.94;;;-2.14;71.24
76128;BME280;64873;50.102;14.434;2023-03-01T01:36:10;100538.16;;;-2.33;71.26
76128;BME280;64873;50.102;14.434;2023-03-01T01:38:37;100539.28;;;-2.25;71.45
76128;BME280;64873;50.102;14.434;2023-03-01T01:41:03;100535.31;;;-2.30;71.55
76128;BME280;64873;50.102;14.434;2023-03-01T01:44:09;100539.47;;;-2.41;71.61
76128;BME280;64873;50.102;14.434;2023-03-01T01:46:37;100536.97;;;-2.29;71.15
76128;BME280;64873;50.102;14.434;2023-03-01T01:49:06;100534.28;;;-2.15;70.67
76128;BME280;64873;50.102;14.434;2023-03-01T01:51:42;100532.38;;;-2.13;70.73
76128;BME280;64873;50.102;14.434;2023-03-01T01:54:37;100532.59;;;-2.16;70.33
76128;BME280;64873;50.102;14.434;2023-03-01T01:57:02;100531.13;;;-2.20;70.78
76128;BME280;64873;50.102;14.434;2023-03-01T01:59:30;100526.53;;;-2.17;70.84
76128;BME280;64873;50.102;14.434;2023-03-01T02:02:00;100525.47;;;-2.14;70.75
76128;BME280;64873;50.102;14.434;2023-03-01T02:04:28;100527.56;;;-2.19;70.55
76128;BME280;64873;50.102;14.434;2023-03-01T02:07:07;100523.38;;;-2.22;70.59
76128;BME280;64873;50.102;14.434;2023-03-01T02:09:36;100520.78;;;-2.34;71.07
76128;BME280;64873;50.102;14.434;2023-03-01T02:12:02;100512.09;;;-2.22;70.90
76128;BME280;64873;50.102;14.434;2023-03-01T02:14:29;100509.97;;;-2.17;70.91
76128;BME280;64873;50.102;14.434;2023-03-01T02:16:55;100515.72;;;-2.12;70.03
76128;BME280;64873;50.102;14.434;2023-03-01T02:19:36;100517.09;;;-2.19;69.96
76128;BME280;64873;50.102;14.434;2023-03-01T02:25:08;100500.13;;;-2.26;70.35
76128;BME280;64873;50.102;14.434;2023-03-01T02:30:43;100496.69;;;-2.14;69.30
76128;BME280;64873;50.102;14.434;2023-03-01T02:33:30;100494.25;;;-2.17;69.96
76128;BME280;64873;50.102;14.434;2023-03-01T02:36:13;100496.38;;;-2.22;70.40
76128;BME280;64873;50.102;14.434;2023-03-01T02:38:41;100495.31;;;-2.20;70.45
76128;BME280;64873;50.102;14.434;2023-03-01T02:41:07;100490.91;;;-2.19;69.91
76128;BME280;64873;50.102;14.434;2023-03-01T02:43:34;100490.31;;;-2.23;70.25
76128;BME280;64873;50.102;14.434;2023-03-01T02:46:07;100495.72;;;-2.26;70.04
76128;BME280;64873;50.102;14.434;2023-03-01T02:48:47;100495.31;;;-2.32;70.91
76128;BME280;64873;50.102;14.434;2023-03-01T02:51:39;100498.56;;;-2.16;69.97
76128;BME280;64873;50.102;14.434;2023-03-01T02:54:26;100500.25;;;-2.15;70.15
76128;BME280;64873;50.102;14.434;2023-03-01T02:56:53;100501.63;;;-2.22;70.19
76128;BME280;64873;50.102;14.434;2023-03-01T02:59:21;100504.41;;;-2.25;70.30
76128;BME280;64873;50.102;14.434;2023-03-01T03:01:47;100495.50;;;-2.48;71.08
76128;BME280;64873;50.102;14.434;2023-03-01T03:04:17;100506.94;;;-2.36;70.96
76128;BME280;64873;50.102;14.434;2023-03-01T03:06:44;100497.22;;;-2.34;71.20
76128;BME280;64873;50.102;14.434;2023-03-01T03:09:11;100509.78;;;-2.39;71.32
76128;BME280;64873;50.102;14.434;2023-03-01T03:11:37;100504.72;;;-2.43;70.90
76128;BME280;64873;50.102;14.434;2023-03-01T03:14:05;100507.56;;;-2.46;71.90
76128;BME280;64873;50.102;14.434;2023-03-01T03:16:31;100506.38;;;-2.67;72.04
76128;BME280;64873;50.102;14.434;2023-03-01T03:18:56;100504.16;;;-2.73;72.44
76128;BME280;64873;50.102;14.434;2023-03-01T03:21:31;100489.41;;;-2.74;73.00
76128;BME280;64873;50.102;14.434;2023-03-01T03:23:56;100491.41;;;-2.65;72.30
76128;BME280;64873;50.102;14.434;2023-03-01T03:26:23;100496.97;;;-2.57;71.86
76128;BME280;64873;50.102;14.434;2023-03-01T03:28:48;100495.09;;;-2.55;72.39
76128;BME280;64873;50.102;14.434;2023-03-01T03:31:13;100486.50;;;-2.57;71.99
76128;BME280;64873;50.102;14.434;2023-03-01T03:33:39;100480.84;;;-2.63;72.19
76128;BME280;64873;50.102;14.434;2023-03-01T03:36:05;100486.69;;;-2.60;71.78
76128;BME280;64873;50.102;14.434;2023-03-01T03:38:30;100476.66;;;-2.66;72.19
76128;BME280;64873;50.102;14.434;2023-03-01T03:41:01;100477.28;;;-2.75;72.44
76128;BME280;64873;50.102;14.434;2023-03-01T03:43:28;100467.84;;;-2.78;72.82
76128;BME280;64873;50.102;14.434;2023-03-01T03:45:54;100475.38;;;-2.73;72.73
76128;BME280;64873;50.102;14.434;2023-03-01T03:48:19;100474.84;;;-2.78;72.82
76128;BME280;64873;50.102;14.434;2023-03-01T03:50:54;100462.59;;;-2.78;72.44
76128;BME280;64873;50.102;14.434;2023-03-01T03:53:21;100465.00;;;-2.87;72.74
76128;BME280;64873;50.102;14.434;2023-03-01T03:55:47;100465.22;;;-2.90;72.99
76128;BME280;64873;50.102;14.434;2023-03-01T03:58:15;100471.16;;;-2.88;73.18
76128;BME280;64873;50.102;14.434;2023-03-01T04:00:43;100468.00;;;-2.93;73.71
76128;BME280;64873;50.102;14.434;2023-03-01T04:03:10;100472.31;;;-2.92;73.42
76128;BME280;64873;50.102;14.434;2023-03-01T04:05:37;100473.06;;;-2.90;73.31
76128;BME280;64873;50.102;14.434;2023-03-01T04:08:03;100472.31;;;-2.92;73.40
76128;BME280;64873;50.102;14.434;2023-03-01T04:10:35;100469.06;;;-2.96;73.26
76128;BME280;64873;50.102;14.434;2023-03-01T04:13:01;100470.63;;;-2.93;73.20
76128;BME280;64873;50.102;14.434;2023-03-01T04:15:27;100464.47;;;-2.92;73.15
76128;BME280;64873;50.102;14.434;2023-03-01T04:17:54;100460.97;;;-3.06;73.61
76128;BME280;64873;50.102;14.434;2023-03-01T04:20:22;100456.94;;;-2.84;73.66
76128;BME280;64873;50.102;14.434;2023-03-01T04:23:06;100457.69;;;-2.82;72.75
76128;BME280;64873;50.102;14.434;2023-03-01T04:25:42;100460.63;;;-2.74;72.90
76128;BME280;64873;50.102;14.434;2023-03-01T04:28:10;100463.03;;;-2.71;72.80
76128;BME280;64873;50.102;14.434;2023-03-01T04:30:37;100467.22;;;-2.81;72.72
76128;BME280;64873;50.102;14.434;2023-03-01T04:33:07;100468.69;;;-2.77;72.54
76128;BME280;64873;50.102;14.434;2023-03-01T04:35:34;100467.81;;;-2.90;72.69
76128;BME280;64873;50.102;14.434;2023-03-01T04:38:00;100469.91;;;-2.96;72.86
76128;BME280;64873;50.102;14.434;2023-03-01T04:40:26;100476.38;;;-3.01;73.19
76128;BME280;64873;50.102;14.434;2023-03-01T04:42:52;100469.97;;;-3.10;73.85
76128;BME280;64873;50.102;14.434;2023-03-01T04:45:18;100486.69;;;-3.12;73.55
76128;BME280;64873;50.102;14.434;2023-03-01T04:47:45;100480.75;;;-3.02;73.81
76128;BME280;64873;50.102;14.434;2023-03-01T04:50:13;100484.72;;;-3.09;73.22
76128;BME280;64873;50.102;14.434;2023-03-01T04:52:39;100483.22;;;-3.13;74.13
76128;BME280;64873;50.102;14.434;2023-03-01T04:55:05;100479.75;;;-3.26;73.87
76128;BME280;64873;50.102;14.434;2023-03-01T04:57:31;100490.19;;;-3.26;74.18
76128;BME280;64873;50.102;14.434;2023-03-01T04:59:57;100477.13;;;-3.26;74.54
76128;BME280;64873;50.102;14.434;2023-03-01T05:02:22;100485.66;;;-3.37;74.74
76128;BME280;64873;50.102;14.434;2023-03-01T05:04:48;100483.97;;;-3.38;74.68
76128;BME280;64873;50.102;14.434;2023-03-01T05:07:14;100479.16;;;-3.44;75.08
76128;BME280;64873;50.102;14.434;2023-03-01T05:09:45;100489.88;;;-3.49;75.51
76128;BME280;64873;50.102;14.434;2023-03-01T05:12:12;100479.53;;;-3.50;75.77
76128;BME280;64873;50.102;14.434;2023-03-01T05:14:37;100481.47;;;-3.39;75.07
76128;BME280;64873;50.102;14.434;2023-03-01T05:17:03;100480.25;;;-3.34;75.13
76128;BME280;64873;50.102;14.434;2023-03-01T05:19:29;100468.69;;;-3.44;75.68
76128;BME280;64873;50.102;14.434;2023-03-01T05:21:56;100465.78;;;-3.39;76.15
76128;BME280;64873;50.102;14.434;2023-03-01T05:24:33;100459.81;;;-3.41;75.35
76128;BME280;64873;50.102;14.434;2023-03-01T05:27:01;100460.50;;;-3.25;75.44
76128;BME280;64873;50.102;14.434;2023-03-01T05:29:28;100464.50;;;-3.19;75.14
76128;BME280;64873;50.102;14.434;2023-03-01T05:31:56;100463.84;;;-3.23;75.33
76128;BME280;64873;50.102;14.434;2023-03-01T05:34:28;100453.94;;;-3.18;74.73
76128;BME280;64873;50.102;14.434;2023-03-01T05:36:54;100453.97;;;-3.05;75.01
76128;BME280;64873;50.102;14.434;2023-03-01T05:39:21;100456.06;;;-3.10;74.34
76128;BME280;64873;50.102;14.434;2023-03-01T05:41:48;100464.25;;;-3.29;74.89
76128;BME280;64873;50.102;14.434;2023-03-01T05:44:16;100463.59;;;-3.60;75.19
76128;BME280;64873;50.102;14.434;2023-03-01T05:46:42;100468.47;;;-3.68;76.34
76128;BME280;64873;50.102;14.434;2023-03-01T05:49:07;100468.09;;;-3.76;76.47
76128;BME280;64873;50.102;14.434;2023-03-01T05:51:33;100456.19;;;-3.80;76.89
76128;BME280;64873;50.102;14.434;2023-03-01T05:53:59;100448.53;;;-3.83;76.91
76128;BME280;64873;50.102;14.434;2023-03-01T05:56:25;100454.88;;;-3.73;76.79
76128;BME280;64873;50.102;14.434;2023-03-01T05:58:50;100454.75;;;-3.57;76.31
76128;BME280;64873;50.102;14.434;2023-03-01T06:01:16;100461.25;;;-3.50;76.40
76128;BME280;64873;50.102;14.434;2023-03-01T06:03:41;100449.06;;;-3.37;75.71
76128;BME280;64873;50.102;14.434;2023-03-01T06:06:07;100452.22;;;-3.32;75.50
76128;BME280;64873;50.102;14.434;2023-03-01T06:08:33;100451.00;;;-3.26;74.96
76128;BME280;64873;50.102;14.434;2023-03-01T06:10:58;100461.16;;;-3.22;74.91
76128;BME280;64873;50.102;14.434;2023-03-01T06:13:24;100461.16;;;-3.49;75.17
76128;BME280;64873;50.102;14.434;2023-03-01T06:15:49;100469.03;;;-3.63;75.94
76128;BME280;64873;50.102;14.434;2023-03-01T06:18:15;100467.31;;;-3.64;76.01
76128;BME280;64873;50.102;14.434;2023-03-01T06:20:40;100466.25;;;-3.74;76.54
76128;BME280;64873;50.102;14.434;2023-03-01T06:23:06;100468.56;;;-3.69;76.87
76128;BME280;64873;50.102;14.434;2023-03-01T06:25:31;100469.22;;;-3.66;77.11
76128;BME280;64873;50.102;14.434;2023-03-01T06:27:57;100463.97;;;-3.66;76.46
76128;BME280;64873;50.102;14.434;2023-03-01T06:30:24;100472.38;;;-3.61;76.60
76128;BME280;64873;50.102;14.434;2023-03-01T06:32:50;100477.47;;;-3.45;75.73
76128;BME280;64873;50.102;14.434;2023-03-01T06:35:16;100479.59;;;-3.37;75.43
76128;BME280;64873;50.102;14.434;2023-03-01T06:37:43;100462.56;;;-3.30;75.83
76128;BME280;64873;50.102;14.434;2023-03-01T06:40:09;100469.84;;;-3.21;75.28
76128;BME280;64873;50.102;14.434;2023-03-01T06:42:40;100458.31;;;-3.18;76.32
76128;BME280;64873;50.102;14.434;2023-03-01T06:45:07;100463.16;;;-3.12;76.20
76128;BME280;64873;50.102;14.434;2023-03-01T06:47:33;100464.03;;;-2.99;74.52
76128;BME280;64873;50.102;14.434;2023-03-01T06:50:00;100461.31;;;-2.98;74.10
76128;BME280;64873;50.102;14.434;2023-03-01T06:52:26;100460.09;;;-3.19;74.17
76128;BME280;64873;50.102;14.434;2023-03-01T06:54:51;100463.03;;;-3.11;75.06
76128;BME280;64873;50.102;14.434;2023-03-01T06:57:24;100459.38;;;-3.21;75.11
76128;BME280;64873;50.102;14.434;2023-03-01T06:59:49;100464.16;;;-3.28;75.13
76128;BME280;64873;50.102;14.434;2023-03-01T07:02:15;100468.34;;;-3.25;75.70
76128;BME280;64873;50.102;14.434;2023-03-01T07:04:41;100469.03;;;-3.09;75.38
76128;BME280;64873;50.102;14.434;2023-03-01T07:07:07;100479.28;;;-3.06;75.49
76128;BME280;64873;50.102;14.434;2023-03-01T07:09:33;100482.44;;;-3.01;74.99
76128;BME280;64873;50.102;14.434;2023-03-01T07:11:59;100474.16;;;-3.07;74.87
76128;BME280;64873;50.102;14.434;2023-03-01T07:14:25;100486.31;;;-2.93;74.88
76128;BME280;64873;50.102;14.434;2023-03-01T07:16:54;100483.84;;;-2.82;75.39
76128;BME280;64873;50.102;14.434;2023-03-01T07:19:20;100482.94;;;-2.56;76.28
76128;BME280;64873;50.102;14.434;2023-03-01T07:21:45;100493.66;;;-2.33;77.29
76128;BME280;64873;50.102;14.434;2023-03-01T07:24:11;100482.53;;;-2.24;76.60
76128;BME280;64873;50.102;14.434;2023-03-01T07:26:37;100488.06;;;-2.29;73.02
76128;BME280;64873;50.102;14.434;2023-03-01T07:29:04;100489.44;;;-2.23;73.33
76128;BME280;64873;50.102;14.434;2023-03-01T07:31:29;100486.31;;;-2.03;74.46
76128;BME280;64873;50.102;14.434;2023-03-01T07:33:55;100486.31;;;-2.03;71.73
76128;BME280;64873;50.102;14.434;2023-03-01T07:36:21;100494.88;;;-2.13;72.66
76128;BME280;64873;50.102;14.434;2023-03-01T07:38:47;100484.63;;;-2.04;72.61
76128;BME280;64873;50.102;14.434;2023-03-01T07:41:12;100482.53;;;-1.99;71.90
76128;BME280;64873;50.102;14.434;2023-03-01T07:43:38;100485.00;;;-1.84;71.59
76128;BME280;64873;50.102;14.434;2023-03-01T07:46:04;100481.31;;;-1.69;72.47
76128;BME280;64873;50.102;14.434;2023-03-01T07:48:31;100475.34;;;-1.71;70.50
76128;BME280;64873;50.102;14.434;2023-03-01T07:51:00;100469.31;;;-1.84;71.20
76128;BME280;64873;50.102;14.434;2023-03-01T07:53:26;100474.63;;;-1.73;70.65
76128;BME280;64873;50.102;14.434;2023-03-01T07:56:08;100470.84;;;-1.69;71.18
76128;BME280;64873;50.102;14.434;2023-03-01T07:58:35;100481.63;;;-1.61;70.01
76128;BME280;64873;50.102;14.434;2023-03-01T08:01:02;100479.72;;;-1.59;69.83
76128;BME280;64873;50.102;14.434;2023-03-01T08:03:28;100483.50;;;-1.63;69.72
76128;BME280;64873;50.102;14.434;2023-03-01T08:05:54;100484.50;;;-1.53;69.68
76128;BME280;64873;50.102;14.434;2023-03-01T08:08:19;100477.66;;;-1.43;69.34
76128;BME280;64873;50.102;14.434;2023-03-01T08:10:45;100475.50;;;-1.49;69.94
76128;BME280;64873;50.102;14.434;2023-03-01T08:13:10;100468.06;;;-1.55;69.17
76128;BME280;64873;50.102;14.434;2023-03-01T08:15:35;100474.59;;;-1.37;68.85
76128;BME280;64873;50.102;14.434;2023-03-01T08:18:01;100466.81;;;-1.25;68.53
76128;BME280;64873;50.102;14.434;2023-03-01T08:20:26;100463.22;;;-1.24;68.92
76128;BME280;64873;50.102;14.434;2023-03-01T08:22:52;100465.31;;;-1.17;68.20
76128;BME280;64873;50.102;14.434;2023-03-01T08:25:17;100456.53;;;-1.04;68.59
76128;BME280;64873;50.102;14.434;2023-03-01T08:27:42;100450.72;;;-0.97;68.30
76128;BME280;64873;50.102;14.434;2023-03-01T08:30:08;100458.84;;;-0.89;68.04
76128;BME280;64873;50.102;14.434;2023-03-01T08:32:37;100456.47;;;-0.92;67.75
76128;BME280;64873;50.102;14.434;2023-03-01T08:35:03;100455.03;;;-0.85;67.31
76128;BME280;64873;50.102;14.434;2023-03-01T08:37:28;100456.75;;;-0.72;67.01
76128;BME280;64873;50.102;14.434;2023-03-01T08:39:56;100447.69;;;-0.68;68.06
76128;BME280;64873;50.102;14.434;2023-03-01T08:42:21;100441.53;;;-0.45;67.16
76128;BME280;64873;50.102;14.434;2023-03-01T08:44:47;100447.75;;;-0.46;66.83
76128;BME280;64873;50.102;14.434;2023-03-01T08:47:12;100445.25;;;-0.36;67.27
76128;BME280;64873;50.102;14.434;2023-03-01T08:49:38;100446.94;;;-0.35;66.50
76128;BME280;64873;50.102;14.434;2023-03-01T08:52:03;100444.88;;;-0.43;65.55
76128;BME280;64873;50.102;14.434;2023-03-01T08:54:28;100443.22;;;-0.44;65.93
76128;BME280;64873;50.102;14.434;2023-03-01T08:56:54;100447.78;;;-0.35;64.89
76128;BME280;64873;50.102;14.434;2023-03-01T08:59:19;100429.47;;;-0.36;64.99
76128;BME280;64873;50.102;14.434;2023-03-01T09:01:45;100431.53;;;-0.29;64.51
76128;BME280;64873;50.102;14.434;2023-03-01T09:04:12;100428.44;;;-0.11;64.26
76128;BME280;64873;50.102;14.434;2023-03-01T09:06:38;100424.84;;;0.01;64.55
76128;BME280;64873;50.102;14.434;2023-03-01T09:09:05;100424.13;;;-0.01;64.21
76128;BME280;64873;50.102;14.434;2023-03-01T09:11:30;100422.22;;;0.12;64.39
76128;BME280;64873;50.102;14.434;2023-03-01T09:13:56;100413.59;;;-0.01;64.50
76128;BME280;64873;50.102;14.434;2023-03-01T09:16:22;100415.66;;;0.07;63.25
76128;BME280;64873;50.102;14.434;2023-03-01T09:18:53;100410.81;;;0.34;62.20
76128;BME280;64873;50.102;14.434;2023-03-01T09:21:20;100398.97;;;0.40;61.39
76128;BME280;64873;50.102;14.434;2023-03-01T09:23:47;100410.22;;;0.42;61.51
76128;BME280;64873;50.102;14.434;2023-03-01T09:26:15;100402.03;;;0.56;60.81
76128;BME280;64873;50.102;14.434;2023-03-01T09:28:42;100400.78;;;0.71;59.10
76128;BME280;64873;50.102;14.434;2023-03-01T09:31:07;100395.22;;;0.86;59.81
76128;BME280;64873;50.102;14.434;2023-03-01T09:33:34;100402.59;;;0.92;59.10
76128;BME280;64873;50.102;14.434;2023-03-01T09:36:04;100401.34;;;1.07;58.50
76128;BME280;64873;50.102;14.434;2023-03-01T09:38:31;100389.50;;;1.22;59.80
76128;BME280;64873;50.102;14.434;2023-03-01T09:40:57;100381.94;;;1.08;58.30
76128;BME280;64873;50.102;14.434;2023-03-01T09:43:30;100389.25;;;1.25;57.78
76128;BME280;64873;50.102;14.434;2023-03-01T09:46:00;100384.81;;;1.26;57.92
76128;BME280;64873;50.102;14.434;2023-03-01T09:48:32;100385.50;;;1.28;57.66
76128;BME280;64873;50.102;14.434;2023-03-01T09:51:01;100382.94;;;1.38;57.47
76128;BME280;64873;50.102;14.434;2023-03-01T09:53:33;100379.25;;;1.50;57.37
76128;BME280;64873;50.102;14.434;2023-03-01T09:56:05;100375.41;;;1.54;56.36
76128;BME280;64873;50.102;14.434;2023-03-01T10:06:31;100371.09;;;1.83;55.83
76128;BME280;64873;50.102;14.434;2023-03-01T10:09:15;100360.56;;;1.93;54.71
76128;BME280;64873;50.102;14.434;2023-03-01T10:11:53;100349.91;;;1.95;54.48
76128;BME280;64873;50.102;14.434;2023-03-01T10:15:30;100352.72;;;2.22;54.02
76128;BME280;64873;50.102;14.434;2023-03-01T10:17:44;100350.19;;;2.11;53.08
76128;BME280;64873;50.102;14.434;2023-03-01T10:20:19;100348.97;;;2.15;52.02
76128;BME280;64873;50.102;14.434;2023-03-01T10:22:45;100337.59;;;2.14;52.05
76128;BME280;64873;50.102;14.434;2023-03-01T10:25:17;100334.97;;;2.24;52.74
76128;BME280;64873;50.102;14.434;2023-03-01T10:27:55;100339.69;;;2.21;52.92
76128;BME280;64873;50.102;14.434;2023-03-01T10:30:43;100339.69;;;2.21;52.08
76128;BME280;64873;50.102;14.434;2023-03-01T10:33:17;100336.91;;;2.22;52.19
76128;BME280;64873;50.102;14.434;2023-03-01T10:35:45;100337.75;;;2.32;51.97
76128;BME280;64873;50.102;14.434;2023-03-01T10:38:14;100340.25;;;2.34;51.58
76128;BME280;64873;50.102;14.434;2023-03-01T10:40:58;100331.78;;;2.40;51.42
76128;BME280;64873;50.102;14.434;2023-03-01T10:43:44;100335.41;;;2.49;51.92
76128;BME280;64873;50.102;14.434;2023-03-01T10:49:16;100330.00;;;2.60;51.43
76128;BME280;64873;50.102;14.434;2023-03-01T10:51:44;100333.75;;;2.67;51.07
76128;BME280;64873;50.102;14.434;2023-03-01T10:56:54;100314.59;;;2.65;51.61
76128;BME280;64873;50.102;14.434;2023-03-01T10:59:29;100308.72;;;2.90;50.69
76128;BME280;64873;50.102;14.434;2023-03-01T11:02:28;100308.03;;;2.88;51.02
76128;BME280;64873;50.102;14.434;2023-03-01T11:16:11;100286.28;;;3.14;51.02
76128;BME280;64873;50.102;14.434;2023-03-01T11:18:37;100274.06;;;3.13;50.61
76128;BME280;64873;50.102;14.434;2023-03-01T11:21:04;100276.94;;;3.19;50.90
76128;BME280;64873;50.102;14.434;2023-03-01T11:23:32;100276.03;;;3.01;51.53
76128;BME280;64873;50.102;14.434;2023-03-01T11:26:05;100269.56;;;3.23;51.23
76128;BME280;64873;50.102;14.434;2023-03-01T11:28:35;100264.78;;;3.36;50.75
76128;BME280;64873;50.102;14.434;2023-03-01T11:31:09;100268.91;;;3.48;50.44
76128;BME280;64873;50.102;14.434;2023-03-01T11:33:54;100266.06;;;3.60;49.73
76128;BME280;64873;50.102;14.434;2023-03-01T11:36:31;100267.25;;;3.47;50.15
76128;BME280;64873;50.102;14.434;2023-03-01T11:39:04;100236.41;;;3.38;50.27
76128;BME280;64873;50.102;14.434;2023-03-01T11:41:33;100254.94;;;3.56;50.06
76128;BME280;64873;50.102;14.434;2023-03-01T11:50:18;100246.97;;;3.66;49.76
76128;BME280;64873;50.102;14.434;2023-03-01T11:52:42;100242.25;;;3.87;49.71
76128;BME280;64873;50.102;14.434;2023-03-01T11:55:29;100236.72;;;3.81;49.65
76128;BME280;64873;50.102;14.434;2023-03-01T12:01:12;100239.09;;;4.01;49.22
76128;BME280;64873;50.102;14.434;2023-03-01T12:19:56;100200.22;;;4.20;48.94
76128;BME280;64873;50.102;14.434;2023-03-01T12:22:50;100206.13;;;4.14;49.53
76128;BME280;64873;50.102;14.434;2023-03-01T12:25:24;100172.34;;;4.08;49.01
76128;BME280;64873;50.102;14.434;2023-03-01T12:33:17;100191.31;;;4.21;49.76
76128;BME280;64873;50.102;14.434;2023-03-01T12:35:51;100189.41;;;4.31;49.34
76128;BME280;64873;50.102;14.434;2023-03-01T12:41:46;100195.13;;;4.44;49.08
76128;BME280;64873;50.102;14.434;2023-03-01T12:52:23;100169.13;;;4.66;48.12
76128;BME280;64873;50.102;14.434;2023-03-01T12:54:51;100176.56;;;4.88;48.01
76128;BME280;64873;50.102;14.434;2023-03-01T12:57:28;100167.97;;;4.94;47.66
76128;BME280;64873;50.102;14.434;2023-03-01T13:08:33;100163.13;;;4.81;48.07
76128;BME280;64873;50.102;14.434;2023-03-01T13:11:02;100161.38;;;4.98;47.82
76128;BME280;64873;50.102;14.434;2023-03-01T13:13:28;100162.75;;;5.11;46.92
76128;BME280;64873;50.102;14.434;2023-03-01T13:15:55;100153.28;;;5.08;47.12
76128;BME280;64873;50.102;14.434;2023-03-01T13:20:52;100151.31;;;5.10;46.70
76128;BME280;64873;50.102;14.434;2023-03-01T13:33:47;100125.66;;;5.11;46.69
76128;BME280;64873;50.102;14.434;2023-03-01T13:39:04;100141.28;;;5.30;47.19
76128;BME280;64873;50.102;14.434;2023-03-01T13:44:35;100126.38;;;5.37;46.79
76128;BME280;64873;50.102;14.434;2023-03-01T13:50:04;100138.16;;;5.51;46.51
76128;BME280;64873;50.102;14.434;2023-03-01T13:52:43;100131.88;;;5.44;46.85
76128;BME280;64873;50.102;14.434;2023-03-01T13:57:44;100133.72;;;5.51;46.72
76128;BME280;64873;50.102;14.434;2023-03-01T14:05:37;100126.47;;;5.70;46.19
76128;BME280;64873;50.102;14.434;2023-03-01T14:08:04;100120.13;;;6.44;45.07
76128;BME280;64873;50.102;14.434;2023-03-01T14:10:42;100101.19;;;6.55;43.83
76128;BME280;64873;50.102;14.434;2023-03-01T14:13:24;100104.84;;;6.54;43.49
76128;BME280;64873;50.102;14.434;2023-03-01T14:21:17;100127.78;;;5.66;45.41
76128;BME280;64873;50.102;14.434;2023-03-01T14:23:43;100133.25;;;5.64;44.98
76128;BME280;64873;50.102;14.434;2023-03-01T14:26:09;100108.53;;;5.55;45.46
76128;BME280;64873;50.102;14.434;2023-03-01T14:28:37;100126.91;;;5.57;45.57
76128;BME280;64873;50.102;14.434;2023-03-01T14:31:31;100115.50;;;5.65;45.97
76128;BME280;64873;50.102;14.434;2023-03-01T14:33:59;100110.69;;;5.60;45.15
76128;BME280;64873;50.102;14.434;2023-03-01T14:36:29;100113.50;;;5.67;45.40
76128;BME280;64873;50.102;14.434;2023-03-01T14:38:55;100112.00;;;5.48;45.29
76128;BME280;64873;50.102;14.434;2023-03-01T14:41:25;100102.09;;;5.58;45.00
76128;BME280;64873;50.102;14.434;2023-03-01T14:49:19;100107.03;;;5.61;45.74
76128;BME280;64873;50.102;14.434;2023-03-01T14:52:04;100095.59;;;5.69;45.99
76128;BME280;64873;50.102;14.434;2023-03-01T14:57:02;100093.97;;;5.59;46.79